sensor_id;sensor_type;location;lat;lon;timestamp;P1;durP1;ratioP1;P2;durP2;ratioP2
46377;SDS011;32083;47.360;9.650;2022-09-13T04:02:46;1.45;;;1.10;;
46377;SDS011;32083;47.360;9.650;2022-09-13T04:05:12;2.72;;;1.30;;
46377;SDS011;32083;47.360;9.650;2022-09-13T04:07:38;1.80;;;1.42;;
46377;SDS011;32083;47.360;9.650;2022-09-13T04:10:04;4.53;;;1.73;;
46377;SDS011;32083;47.360;9.650;2022-09-13T04:12:31;2.45;;;1.50;;
46377;SDS011;32083;47.360;9.650;2022-09-13T04:14:57;3.00;;;1.45;;
46377;SDS011;32083;47.360;9.650;2022-09-13T04:17:23;1.92;;;1.30;;
46377;SDS011;32083;47.360;9.650;2022-09-13T04:19:48;2.22;;;1.50;;
46377;SDS011;32083;47.360;9.650;2022-09-13T04:22:15;4.00;;;1.63;;
46377;SDS011;32083;47.360;9.650;2022-09-13T04:24:40;2.28;;;1.40;;
46377;SDS011;32083;47.360;9.650;2022-09-13T04:27:08;5.47;;;1.98;;
46377;SDS011;32083;47.360;9.650;2022-09-13T04:29:34;4.68;;;2.00;;
46377;SDS011;32083;47.360;9.650;2022-09-13T04:32:00;2.60;;;1.63;;
46377;SDS011;32083;47.360;9.650;2022-09-13T04:34:26;2.72;;;1.55;;
46377;SDS011;32083;47.360;9.650;2022-09-13T04:36:52;3.53;;;1.25;;
46377;SDS011;32083;47.360;9.650;2022-09-13T04:39:19;3.83;;;1.60;;
46377;SDS011;32083;47.360;9.650;2022-09-13T04:41:46;1.63;;;1.25;;
46377;SDS011;32083;47.360;9.650;2022-09-13T04:44:16;4.20;;;1.55;;
46377;SDS011;32083;47.360;9.650;2022-09-13T04:46:44;5.30;;;1.50;;
46377;SDS011;32083;47.360;9.650;2022-09-13T04:49:12;4.45;;;3.10;;
46377;SDS011;32083;47.360;9.650;2022-09-13T04:51:39;3.88;;;2.40;;
46377;SDS011;32083;47.360;9.650;2022-09-13T04:54:05;3.97;;;2.70;;
46377;SDS011;32083;47.360;9.650;2022-09-13T04:56:31;5.80;;;2.90;;
46377;SDS011;32083;47.360;9.650;2022-09-13T04:58:57;1.33;;;0.95;;
46377;SDS011;32083;47.360;9.650;2022-09-13T05:01:23;1.95;;;1.02;;
46377;SDS011;32083;47.360;9.650;2022-09-13T05:03:49;0.93;;;0.70;;
46377;SDS011;32083;47.360;9.650;2022-09-13T05:06:19;1.60;;;0.73;;
46377;SDS011;32083;47.360;9.650;2022-09-13T05:08:53;1.80;;;0.70;;
46377;SDS011;32083;47.360;9.650;2022-09-13T05:13:50;1.05;;;0.73;;
46377;SDS011;32083;47.360;9.650;2022-09-13T05:16:19;2.90;;;0.65;;
46377;SDS011;32083;47.360;9.650;2022-09-13T05:18:45;1.48;;;0.80;;
46377;SDS011;32083;47.360;9.650;2022-09-13T05:21:12;1.92;;;0.80;;
46377;SDS011;32083;47.360;9.650;2022-09-13T05:23:38;0.90;;;0.52;;
46377;SDS011;32083;47.360;9.650;2022-09-13T05:26:04;1.75;;;0.68;;
46377;SDS011;32083;47.360;9.650;2022-09-13T05:28:32;3.55;;;0.70;;
46377;SDS011;32083;47.360;9.650;2022-09-13T05:31:06;1.92;;;0.88;;
46377;SDS011;32083;47.360;9.650;2022-09-13T05:33:37;1.38;;;0.90;;
46377;SDS011;32083;47.360;9.650;2022-09-13T05:36:04;1.35;;;0.60;;
46377;SDS011;32083;47.360;9.650;2022-09-13T05:38:30;1.40;;;0.80;;
46377;SDS011;32083;47.360;9.650;2022-09-13T05:40:58;2.35;;;0.80;;
46377;SDS011;32083;47.360;9.650;2022-09-13T05:43:29;1.20;;;0.50;;
46377;SDS011;32083;47.360;9.650;2022-09-13T05:46:03;3.10;;;1.10;;
46377;SDS011;32083;47.360;9.650;2022-09-13T05:48:31;5.68;;;1.60;;
46377;SDS011;32083;47.360;9.650;2022-09-13T05:51:06;6.03;;;1.90;;
46377;SDS011;32083;47.360;9.650;2022-09-13T05:53:40;9.23;;;2.00;;
46377;SDS011;32083;47.360;9.650;2022-09-13T05:56:08;4.10;;;2.13;;
46377;SDS011;32083;47.360;9.650;2022-09-13T05:58:39;3.97;;;1.70;;
46377;SDS011;32083;47.360;9.650;2022-09-13T06:01:07;16.50;;;4.07;;
46377;SDS011;32083;47.360;9.650;2022-09-13T06:03:34;10.55;;;3.25;;
46377;SDS011;32083;47.360;9.650;2022-09-13T06:06:03;11.57;;;2.67;;
46377;SDS011;32083;47.360;9.650;2022-09-13T06:08:31;5.85;;;2.60;;
46377;SDS011;32083;47.360;9.650;2022-09-13T06:11:00;8.02;;;2.25;;
46377;SDS011;32083;47.360;9.650;2022-09-13T06:13:31;3.95;;;1.70;;
46377;SDS011;32083;47.360;9.650;2022-09-13T06:15:58;4.03;;;1.52;;
46377;SDS011;32083;47.360;9.650;2022-09-13T06:18:25;6.28;;;2.22;;
46377;SDS011;32083;47.360;9.650;2022-09-13T06:21:03;4.13;;;2.10;;
46377;SDS011;32083;47.360;9.650;2022-09-13T06:23:31;5.70;;;1.67;;
46377;SDS011;32083;47.360;9.650;2022-09-13T06:26:07;6.05;;;2.13;;
46377;SDS011;32083;47.360;9.650;2022-09-13T06:28:36;5.00;;;2.13;;
46377;SDS011;32083;47.360;9.650;2022-09-13T06:31:03;12.55;;;2.70;;
46377;SDS011;32083;47.360;9.650;2022-09-13T06:33:38;3.90;;;1.50;;
46377;SDS011;32083;47.360;9.650;2022-09-13T06:36:06;4.78;;;1.73;;
46377;SDS011;32083;47.360;9.650;2022-09-13T06:41:08;1.90;;;0.68;;
46377;SDS011;32083;47.360;9.650;2022-09-13T06:43:36;1.02;;;0.52;;
46377;SDS011;32083;47.360;9.650;2022-09-13T06:46:21;2.50;;;0.65;;
46377;SDS011;32083;47.360;9.650;2022-09-13T06:48:47;1.38;;;0.90;;
46377;SDS011;32083;47.360;9.650;2022-09-13T06:51:17;3.85;;;2.00;;
46377;SDS011;32083;47.360;9.650;2022-09-13T06:53:45;5.35;;;1.92;;
46377;SDS011;32083;47.360;9.650;2022-09-13T06:56:14;3.30;;;1.25;;
46377;SDS011;32083;47.360;9.650;2022-09-13T06:58:42;6.78;;;1.77;;
46377;SDS011;32083;47.360;9.650;2022-09-13T07:01:17;2.08;;;1.30;;
46377;SDS011;32083;47.360;9.650;2022-09-13T07:03:49;5.30;;;1.60;;
46377;SDS011;32083;47.360;9.650;2022-09-13T07:06:21;2.15;;;1.05;;
46377;SDS011;32083;47.360;9.650;2022-09-13T07:08:49;4.43;;;1.40;;
46377;SDS011;32083;47.360;9.650;2022-09-13T07:11:16;8.80;;;2.63;;
46377;SDS011;32083;47.360;9.650;2022-09-13T07:13:48;4.22;;;1.42;;
46377;SDS011;32083;47.360;9.650;2022-09-13T07:16:15;2.92;;;0.65;;
46377;SDS011;32083;47.360;9.650;2022-09-13T07:18:41;0.80;;;0.55;;
46377;SDS011;32083;47.360;9.650;2022-09-13T07:21:08;1.23;;;0.60;;
46377;SDS011;32083;47.360;9.650;2022-09-13T07:23:36;0.82;;;0.60;;
46377;SDS011;32083;47.360;9.650;2022-09-13T07:26:03;1.10;;;0.60;;
46377;SDS011;32083;47.360;9.650;2022-09-13T07:28:51;2.92;;;1.15;;
46377;SDS011;32083;47.360;9.650;2022-09-13T07:34:00;1.50;;;1.00;;
46377;SDS011;32083;47.360;9.650;2022-09-13T07:36:28;1.98;;;0.95;;
46377;SDS011;32083;47.360;9.650;2022-09-13T07:38:56;2.55;;;1.00;;
46377;SDS011;32083;47.360;9.650;2022-09-13T07:41:24;1.58;;;0.90;;
46377;SDS011;32083;47.360;9.650;2022-09-13T07:43:51;1.38;;;0.73;;
46377;SDS011;32083;47.360;9.650;2022-09-13T07:46:19;3.85;;;1.27;;
46377;SDS011;32083;47.360;9.650;2022-09-13T07:48:50;1.77;;;0.80;;
46377;SDS011;32083;47.360;9.650;2022-09-13T07:51:19;3.45;;;0.80;;
46377;SDS011;32083;47.360;9.650;2022-09-13T07:53:50;3.58;;;0.63;;
46377;SDS011;32083;47.360;9.650;2022-09-13T07:56:20;3.78;;;0.80;;
46377;SDS011;32083;47.360;9.650;2022-09-13T07:58:48;1.27;;;0.60;;
46377;SDS011;32083;47.360;9.650;2022-09-13T08:03:49;1.45;;;0.70;;
46377;SDS011;32083;47.360;9.650;2022-09-13T08:06:26;2.10;;;0.88;;
46377;SDS011;32083;47.360;9.650;2022-09-13T08:08:54;2.10;;;0.70;;
46377;SDS011;32083;47.360;9.650;2022-09-13T08:11:22;2.20;;;1.00;;
46377;SDS011;32083;47.360;9.650;2022-09-13T08:13:50;1.75;;;0.68;;
46377;SDS011;32083;47.360;9.650;2022-09-13T08:16:17;2.22;;;0.88;;
46377;SDS011;32083;47.360;9.650;2022-09-13T08:18:45;1.35;;;1.10;;
46377;SDS011;32083;47.360;9.650;2022-09-13T08:21:13;1.13;;;0.50;;
46377;SDS011;32083;47.360;9.650;2022-09-13T08:23:39;1.60;;;0.70;;
46377;SDS011;32083;47.360;9.650;2022-09-13T08:26:06;4.60;;;0.80;;
46377;SDS011;32083;47.360;9.650;2022-09-13T08:28:33;2.10;;;0.60;;
46377;SDS011;32083;47.360;9.650;2022-09-13T08:31:07;2.30;;;1.00;;
46377;SDS011;32083;47.360;9.650;2022-09-13T08:33:36;1.35;;;0.93;;
46377;SDS011;32083;47.360;9.650;2022-09-13T08:36:03;5.35;;;1.60;;
46377;SDS011;32083;47.360;9.650;2022-09-13T08:38:30;1.75;;;0.80;;
46377;SDS011;32083;47.360;9.650;2022-09-13T08:41:05;3.80;;;0.80;;
46377;SDS011;32083;47.360;9.650;2022-09-13T08:44:08;3.00;;;1.00;;
46377;SDS011;32083;47.360;9.650;2022-09-13T08:50:00;2.85;;;0.95;;
46377;SDS011;32083;47.360;9.650;2022-09-13T08:52:39;1.60;;;0.70;;
46377;SDS011;32083;47.360;9.650;2022-09-13T09:00:49;3.25;;;1.13;;
46377;SDS011;32083;47.360;9.650;2022-09-13T09:06:02;2.25;;;0.93;;
46377;SDS011;32083;47.360;9.650;2022-09-13T09:11:06;2.58;;;0.80;;
46377;SDS011;32083;47.360;9.650;2022-09-13T09:13:46;6.05;;;1.80;;
46377;SDS011;32083;47.360;9.650;2022-09-13T09:16:27;1.40;;;0.60;;
46377;SDS011;32083;47.360;9.650;2022-09-13T09:19:04;4.93;;;1.98;;
46377;SDS011;32083;47.360;9.650;2022-09-13T09:21:52;3.90;;;0.93;;
46377;SDS011;32083;47.360;9.650;2022-09-13T09:24:20;1.75;;;1.10;;
46377;SDS011;32083;47.360;9.650;2022-09-13T09:26:48;2.38;;;1.05;;
46377;SDS011;32083;47.360;9.650;2022-09-13T09:37:30;2.70;;;0.98;;
46377;SDS011;32083;47.360;9.650;2022-09-13T09:39:59;1.83;;;0.60;;
46377;SDS011;32083;47.360;9.650;2022-09-13T09:42:28;1.42;;;0.70;;
46377;SDS011;32083;47.360;9.650;2022-09-13T09:45:17;1.98;;;0.82;;
46377;SDS011;32083;47.360;9.650;2022-09-13T09:47:50;3.70;;;0.90;;
46377;SDS011;32083;47.360;9.650;2022-09-13T09:50:22;3.88;;;1.40;;
46377;SDS011;32083;47.360;9.650;2022-09-13T09:56:02;1.33;;;0.95;;
46377;SDS011;32083;47.360;9.650;2022-09-13T09:58:44;2.17;;;0.82;;
46377;SDS011;32083;47.360;9.650;2022-09-13T10:03:50;4.15;;;1.88;;
46377;SDS011;32083;47.360;9.650;2022-09-13T10:06:28;8.83;;;1.73;;
46377;SDS011;32083;47.360;9.650;2022-09-13T10:14:09;2.55;;;1.13;;
46377;SDS011;32083;47.360;9.650;2022-09-13T10:19:52;3.38;;;0.80;;
46377;SDS011;32083;47.360;9.650;2022-09-13T10:22:19;3.92;;;1.20;;
46377;SDS011;32083;47.360;9.650;2022-09-13T10:24:47;4.00;;;1.05;;
46377;SDS011;32083;47.360;9.650;2022-09-13T10:31:00;4.10;;;0.70;;
46377;SDS011;32083;47.360;9.650;2022-09-13T10:32:59;1.85;;;0.90;;
46377;SDS011;32083;47.360;9.650;2022-09-13T10:35:27;4.95;;;1.05;;
46377;SDS011;32083;47.360;9.650;2022-09-13T10:37:54;2.38;;;0.70;;
46377;SDS011;32083;47.360;9.650;2022-09-13T10:40:25;2.60;;;1.02;;
46377;SDS011;32083;47.360;9.650;2022-09-13T10:42:57;2.05;;;0.73;;
46377;SDS011;32083;47.360;9.650;2022-09-13T10:45:26;3.07;;;1.00;;
46377;SDS011;32083;47.360;9.650;2022-09-13T10:48:08;1.13;;;0.90;;
46377;SDS011;32083;47.360;9.650;2022-09-13T10:50:43;3.08;;;1.20;;
46377;SDS011;32083;47.360;9.650;2022-09-13T10:55:59;1.60;;;0.90;;
46377;SDS011;32083;47.360;9.650;2022-09-13T10:58:27;6.90;;;1.40;;
46377;SDS011;32083;47.360;9.650;2022-09-13T11:03:55;5.95;;;1.17;;
46377;SDS011;32083;47.360;9.650;2022-09-13T11:17:24;5.40;;;0.95;;
46377;SDS011;32083;47.360;9.650;2022-09-13T11:20:23;4.80;;;1.02;;
46377;SDS011;32083;47.360;9.650;2022-09-13T11:23:22;4.38;;;0.95;;
46377;SDS011;32083;47.360;9.650;2022-09-13T11:29:04;1.80;;;1.00;;
46377;SDS011;32083;47.360;9.650;2022-09-13T11:37:41;4.03;;;1.10;;
46377;SDS011;32083;47.360;9.650;2022-09-13T11:40:33;4.00;;;1.08;;
46377;SDS011;32083;47.360;9.650;2022-09-13T11:57:07;2.10;;;1.13;;
46377;SDS011;32083;47.360;9.650;2022-09-13T11:59:50;3.20;;;1.10;;
46377;SDS011;32083;47.360;9.650;2022-09-13T12:05:22;2.80;;;1.38;;
46377;SDS011;32083;47.360;9.650;2022-09-13T12:19:04;5.97;;;1.58;;
46377;SDS011;32083;47.360;9.650;2022-09-13T12:21:46;6.35;;;1.60;;
46377;SDS011;32083;47.360;9.650;2022-09-13T12:24:18;1.70;;;1.33;;
46377;SDS011;32083;47.360;9.650;2022-09-13T12:27:23;4.68;;;1.58;;
46377;SDS011;32083;47.360;9.650;2022-09-13T12:30:02;8.10;;;1.40;;
46377;SDS011;32083;47.360;9.650;2022-09-13T12:32:38;4.13;;;1.48;;
46377;SDS011;32083;47.360;9.650;2022-09-13T12:35:06;5.28;;;1.30;;
46377;SDS011;32083;47.360;9.650;2022-09-13T12:57:20;1.88;;;1.13;;
46377;SDS011;32083;47.360;9.650;2022-09-13T13:00:24;5.35;;;1.33;;
46377;SDS011;32083;47.360;9.650;2022-09-13T13:05:46;13.70;;;2.05;;
46377;SDS011;32083;47.360;9.650;2022-09-13T13:10:44;4.78;;;2.20;;
46377;SDS011;32083;47.360;9.650;2022-09-13T13:13:35;2.28;;;1.45;;
46377;SDS011;32083;47.360;9.650;2022-09-13T13:16:26;2.92;;;1.30;;
46377;SDS011;32083;47.360;9.650;2022-09-13T13:19:02;5.82;;;1.40;;
46377;SDS011;32083;47.360;9.650;2022-09-13T13:21:30;2.50;;;1.63;;
46377;SDS011;32083;47.360;9.650;2022-09-13T13:29:11;2.75;;;1.20;;
46377;SDS011;32083;47.360;9.650;2022-09-13T13:36:49;6.72;;;1.50;;
46377;SDS011;32083;47.360;9.650;2022-09-13T13:49:45;5.70;;;1.20;;
46377;SDS011;32083;47.360;9.650;2022-09-13T13:57:35;3.60;;;1.88;;
46377;SDS011;32083;47.360;9.650;2022-09-13T14:00:19;9.80;;;2.00;;
46377;SDS011;32083;47.360;9.650;2022-09-13T14:05:21;2.97;;;1.40;;
46377;SDS011;32083;47.360;9.650;2022-09-13T14:14:24;5.57;;;1.70;;
46377;SDS011;32083;47.360;9.650;2022-09-13T14:20:14;2.75;;;1.50;;
46377;SDS011;32083;47.360;9.650;2022-09-13T14:22:43;5.03;;;1.27;;
46377;SDS011;32083;47.360;9.650;2022-09-13T14:27:44;4.00;;;1.45;;
46377;SDS011;32083;47.360;9.650;2022-09-13T14:30:23;4.70;;;1.70;;
46377;SDS011;32083;47.360;9.650;2022-09-13T14:32:56;3.63;;;1.60;;
46377;SDS011;32083;47.360;9.650;2022-09-13T14:35:43;3.50;;;1.58;;
46377;SDS011;32083;47.360;9.650;2022-09-13T14:38:22;3.05;;;1.30;;
46377;SDS011;32083;47.360;9.650;2022-09-13T14:40:57;3.47;;;1.70;;
46377;SDS011;32083;47.360;9.650;2022-09-13T14:43:38;5.25;;;1.48;;
46377;SDS011;32083;47.360;9.650;2022-09-13T14:46:09;2.78;;;1.40;;
46377;SDS011;32083;47.360;9.650;2022-09-13T14:48:41;4.17;;;1.10;;
46377;SDS011;32083;47.360;9.650;2022-09-13T14:54:14;4.60;;;1.52;;
46377;SDS011;32083;47.360;9.650;2022-09-13T14:56:56;1.88;;;1.27;;
46377;SDS011;32083;47.360;9.650;2022-09-13T15:01:50;5.22;;;1.30;;
46377;SDS011;32083;47.360;9.650;2022-09-13T15:04:17;3.30;;;1.60;;
46377;SDS011;32083;47.360;9.650;2022-09-13T15:06:45;2.63;;;1.55;;
46377;SDS011;32083;47.360;9.650;2022-09-13T15:11:41;6.97;;;1.52;;
46377;SDS011;32083;47.360;9.650;2022-09-13T15:16:52;3.38;;;1.45;;
46377;SDS011;32083;47.360;9.650;2022-09-13T15:22:15;4.18;;;1.35;;
46377;SDS011;32083;47.360;9.650;2022-09-13T15:24:43;1.65;;;1.10;;
46377;SDS011;32083;47.360;9.650;2022-09-13T15:27:31;2.97;;;1.52;;
46377;SDS011;32083;47.360;9.650;2022-09-13T15:30:28;2.28;;;1.30;;
46377;SDS011;32083;47.360;9.650;2022-09-13T15:33:02;4.35;;;1.00;;
46377;SDS011;32083;47.360;9.650;2022-09-13T15:35:42;6.35;;;1.85;;
46377;SDS011;32083;47.360;9.650;2022-09-13T15:41:11;6.30;;;1.35;;
46377;SDS011;32083;47.360;9.650;2022-09-13T15:43:42;7.55;;;1.40;;
46377;SDS011;32083;47.360;9.650;2022-09-13T15:46:13;2.28;;;1.38;;
46377;SDS011;32083;47.360;9.650;2022-09-13T15:48:42;5.97;;;2.40;;
46377;SDS011;32083;47.360;9.650;2022-09-13T15:51:14;6.85;;;2.28;;
46377;SDS011;32083;47.360;9.650;2022-09-13T15:53:42;4.45;;;2.30;;
46377;SDS011;32083;47.360;9.650;2022-09-13T15:56:13;4.97;;;2.00;;
46377;SDS011;32083;47.360;9.650;2022-09-13T15:58:42;4.68;;;1.73;;
46377;SDS011;32083;47.360;9.650;2022-09-13T16:01:11;4.10;;;2.08;;
46377;SDS011;32083;47.360;9.650;2022-09-13T16:03:38;7.40;;;3.30;;
46377;SDS011;32083;47.360;9.650;2022-09-13T16:06:05;5.95;;;3.10;;
46377;SDS011;32083;47.360;9.650;2022-09-13T16:08:36;5.63;;;2.15;;
46377;SDS011;32083;47.360;9.650;2022-09-13T16:11:03;5.63;;;3.10;;
46377;SDS011;32083;47.360;9.650;2022-09-13T16:13:30;9.45;;;2.15;;
46377;SDS011;32083;47.360;9.650;2022-09-13T16:15:56;3.30;;;1.60;;
46377;SDS011;32083;47.360;9.650;2022-09-13T16:18:22;2.25;;;1.40;;
46377;SDS011;32083;47.360;9.650;2022-09-13T16:20:48;2.28;;;1.35;;
46377;SDS011;32083;47.360;9.650;2022-09-13T16:23:15;7.55;;;2.10;;
46377;SDS011;32083;47.360;9.650;2022-09-13T16:25:41;3.47;;;2.20;;
46377;SDS011;32083;47.360;9.650;2022-09-13T16:28:09;5.68;;;1.55;;
46377;SDS011;32083;47.360;9.650;2022-09-13T16:30:42;2.67;;;1.20;;
46377;SDS011;32083;47.360;9.650;2022-09-13T16:33:08;7.25;;;1.70;;
46377;SDS011;32083;47.360;9.650;2022-09-13T16:35:33;2.92;;;1.50;;
46377;SDS011;32083;47.360;9.650;2022-09-13T16:38:00;2.17;;;1.33;;
46377;SDS011;32083;47.360;9.650;2022-09-13T16:40:25;7.30;;;3.55;;
46377;SDS011;32083;47.360;9.650;2022-09-13T16:42:51;18.58;;;10.35;;
46377;SDS011;32083;47.360;9.650;2022-09-13T16:45:18;7.10;;;5.13;;
46377;SDS011;32083;47.360;9.650;2022-09-13T16:47:44;7.93;;;3.45;;
46377;SDS011;32083;47.360;9.650;2022-09-13T16:50:10;3.80;;;2.28;;
46377;SDS011;32083;47.360;9.650;2022-09-13T16:52:36;2.72;;;1.80;;
46377;SDS011;32083;47.360;9.650;2022-09-13T16:55:03;5.38;;;1.88;;
46377;SDS011;32083;47.360;9.650;2022-09-13T16:57:30;9.38;;;2.13;;
46377;SDS011;32083;47.360;9.650;2022-09-13T16:59:55;8.98;;;2.08;;
46377;SDS011;32083;47.360;9.650;2022-09-13T17:02:23;7.10;;;2.15;;
46377;SDS011;32083;47.360;9.650;2022-09-13T17:04:50;8.90;;;2.70;;
46377;SDS011;32083;47.360;9.650;2022-09-13T17:07:16;7.53;;;3.10;;
46377;SDS011;32083;47.360;9.650;2022-09-13T17:09:42;9.15;;;2.58;;
46377;SDS011;32083;47.360;9.650;2022-09-13T17:12:10;7.93;;;3.95;;
46377;SDS011;32083;47.360;9.650;2022-09-13T17:14:38;6.57;;;3.60;;
46377;SDS011;32083;47.360;9.650;2022-09-13T17:17:11;5.40;;;2.42;;
46377;SDS011;32083;47.360;9.650;2022-09-13T17:19:39;6.22;;;2.47;;
46377;SDS011;32083;47.360;9.650;2022-09-13T17:22:05;9.00;;;3.33;;
46377;SDS011;32083;47.360;9.650;2022-09-13T17:24:34;8.68;;;3.10;;
46377;SDS011;32083;47.360;9.650;2022-09-13T17:27:01;4.07;;;2.90;;
46377;SDS011;32083;47.360;9.650;2022-09-13T17:29:28;4.22;;;2.42;;
46377;SDS011;32083;47.360;9.650;2022-09-13T17:31:58;4.65;;;3.33;;
46377;SDS011;32083;47.360;9.650;2022-09-13T17:34:26;11.27;;;5.75;;
46377;SDS011;32083;47.360;9.650;2022-09-13T17:36:52;5.15;;;3.85;;
46377;SDS011;32083;47.360;9.650;2022-09-13T17:39:18;6.53;;;3.45;;
46377;SDS011;32083;47.360;9.650;2022-09-13T17:41:45;5.07;;;3.08;;
46377;SDS011;32083;47.360;9.650;2022-09-13T17:44:12;7.70;;;2.90;;
46377;SDS011;32083;47.360;9.650;2022-09-13T17:46:39;8.35;;;3.15;;
46377;SDS011;32083;47.360;9.650;2022-09-13T17:49:05;9.65;;;3.03;;
46377;SDS011;32083;47.360;9.650;2022-09-13T17:51:31;5.20;;;2.85;;
46377;SDS011;32083;47.360;9.650;2022-09-13T17:53:59;4.75;;;2.50;;
46377;SDS011;32083;47.360;9.650;2022-09-13T17:56:28;7.07;;;3.92;;
46377;SDS011;32083;47.360;9.650;2022-09-13T17:58:56;8.30;;;3.28;;
46377;SDS011;32083;47.360;9.650;2022-09-13T18:01:29;8.23;;;3.42;;
46377;SDS011;32083;47.360;9.650;2022-09-13T18:03:55;7.53;;;4.25;;
46377;SDS011;32083;47.360;9.650;2022-09-13T18:06:21;11.52;;;4.15;;
46377;SDS011;32083;47.360;9.650;2022-09-13T18:08:47;10.48;;;4.97;;
46377;SDS011;32083;47.360;9.650;2022-09-13T18:11:16;12.35;;;4.97;;
46377;SDS011;32083;47.360;9.650;2022-09-13T18:13:43;11.43;;;3.65;;
46377;SDS011;32083;47.360;9.650;2022-09-13T18:16:14;11.00;;;3.83;;
46377;SDS011;32083;47.360;9.650;2022-09-13T18:18:42;8.80;;;4.03;;
46377;SDS011;32083;47.360;9.650;2022-09-13T18:21:12;7.25;;;3.78;;
46377;SDS011;32083;47.360;9.650;2022-09-13T18:23:39;5.65;;;3.45;;
46377;SDS011;32083;47.360;9.650;2022-09-13T18:26:06;9.68;;;3.63;;
46377;SDS011;32083;47.360;9.650;2022-09-13T18:28:34;11.13;;;4.05;;
46377;SDS011;32083;47.360;9.650;2022-09-13T18:31:01;8.05;;;3.60;;
46377;SDS011;32083;47.360;9.650;2022-09-13T18:33:33;9.10;;;3.80;;
46377;SDS011;32083;47.360;9.650;2022-09-13T18:36:10;6.63;;;3.55;;
46377;SDS011;32083;47.360;9.650;2022-09-13T18:38:38;10.73;;;4.35;;
46377;SDS011;32083;47.360;9.650;2022-09-13T18:41:07;7.35;;;3.75;;
46377;SDS011;32083;47.360;9.650;2022-09-13T18:43:35;7.47;;;3.50;;
46377;SDS011;32083;47.360;9.650;2022-09-13T18:46:03;6.45;;;3.30;;
46377;SDS011;32083;47.360;9.650;2022-09-13T18:48:31;10.40;;;4.05;;
46377;SDS011;32083;47.360;9.650;2022-09-13T18:51:02;6.43;;;3.30;;
46377;SDS011;32083;47.360;9.650;2022-09-13T18:53:29;6.65;;;3.65;;
46377;SDS011;32083;47.360;9.650;2022-09-13T18:56:01;4.72;;;3.10;;
46377;SDS011;32083;47.360;9.650;2022-09-13T18:58:29;10.80;;;4.00;;
46377;SDS011;32083;47.360;9.650;2022-09-13T19:01:03;6.97;;;3.33;;
46377;SDS011;32083;47.360;9.650;2022-09-13T19:03:31;7.47;;;3.65;;
46377;SDS011;32083;47.360;9.650;2022-09-13T19:06:14;5.78;;;3.33;;
46377;SDS011;32083;47.360;9.650;2022-09-13T19:08:43;5.65;;;3.13;;
46377;SDS011;32083;47.360;9.650;2022-09-13T19:11:09;10.90;;;3.70;;
46377;SDS011;32083;47.360;9.650;2022-09-13T19:13:36;7.07;;;3.55;;
46377;SDS011;32083;47.360;9.650;2022-09-13T19:16:04;8.27;;;3.90;;
46377;SDS011;32083;47.360;9.650;2022-09-13T19:18:33;7.63;;;4.28;;
46377;SDS011;32083;47.360;9.650;2022-09-13T19:21:05;10.00;;;5.40;;
46377;SDS011;32083;47.360;9.650;2022-09-13T19:23:33;7.25;;;4.28;;
46377;SDS011;32083;47.360;9.650;2022-09-13T19:26:04;6.38;;;4.40;;
46377;SDS011;32083;47.360;9.650;2022-09-13T19:28:36;4.95;;;3.28;;
46377;SDS011;32083;47.360;9.650;2022-09-13T19:31:07;5.50;;;3.38;;
46377;SDS011;32083;47.360;9.650;2022-09-13T19:33:35;5.95;;;3.55;;
46377;SDS011;32083;47.360;9.650;2022-09-13T19:36:06;7.65;;;4.20;;
46377;SDS011;32083;47.360;9.650;2022-09-13T19:38:35;9.02;;;4.15;;
46377;SDS011;32083;47.360;9.650;2022-09-13T19:41:03;8.45;;;3.70;;
46377;SDS011;32083;47.360;9.650;2022-09-13T19:43:31;8.50;;;4.00;;
46377;SDS011;32083;47.360;9.650;2022-09-13T19:46:01;7.35;;;3.92;;
46377;SDS011;32083;47.360;9.650;2022-09-13T19:48:29;5.32;;;2.85;;
46377;SDS011;32083;47.360;9.650;2022-09-13T19:51:04;4.70;;;2.97;;
46377;SDS011;32083;47.360;9.650;2022-09-13T19:53:35;4.85;;;2.65;;
46377;SDS011;32083;47.360;9.650;2022-09-13T19:56:08;6.65;;;3.15;;
46377;SDS011;32083;47.360;9.650;2022-09-13T19:58:38;5.38;;;2.55;;
46377;SDS011;32083;47.360;9.650;2022-09-13T20:01:10;9.98;;;2.95;;
46377;SDS011;32083;47.360;9.650;2022-09-13T20:03:42;5.38;;;2.25;;
46377;SDS011;32083;47.360;9.650;2022-09-13T20:06:14;3.13;;;2.22;;
46377;SDS011;32083;47.360;9.650;2022-09-13T20:08:41;2.72;;;1.92;;
46377;SDS011;32083;47.360;9.650;2022-09-13T20:11:08;5.10;;;1.98;;
46377;SDS011;32083;47.360;9.650;2022-09-13T20:13:36;4.40;;;2.00;;
46377;SDS011;32083;47.360;9.650;2022-09-13T20:16:19;9.30;;;2.70;;
46377;SDS011;32083;47.360;9.650;2022-09-13T20:18:48;3.60;;;1.60;;
46377;SDS011;32083;47.360;9.650;2022-09-13T20:21:15;2.88;;;2.28;;
46377;SDS011;32083;47.360;9.650;2022-09-13T20:23:42;5.45;;;1.90;;
46377;SDS011;32083;47.360;9.650;2022-09-13T20:26:17;4.28;;;2.03;;
46377;SDS011;32083;47.360;9.650;2022-09-13T20:28:45;3.72;;;1.77;;
46377;SDS011;32083;47.360;9.650;2022-09-13T20:31:14;4.07;;;2.05;;
46377;SDS011;32083;47.360;9.650;2022-09-13T20:33:41;4.60;;;2.47;;
46377;SDS011;32083;47.360;9.650;2022-09-13T20:36:10;1.95;;;1.67;;
46377;SDS011;32083;47.360;9.650;2022-09-13T20:38:38;6.90;;;2.20;;
46377;SDS011;32083;47.360;9.650;2022-09-13T20:41:06;5.57;;;2.47;;
46377;SDS011;32083;47.360;9.650;2022-09-13T20:43:37;4.60;;;2.05;;
46377;SDS011;32083;47.360;9.650;2022-09-13T20:46:05;9.02;;;2.50;;
46377;SDS011;32083;47.360;9.650;2022-09-13T20:48:33;9.00;;;2.83;;
46377;SDS011;32083;47.360;9.650;2022-09-13T20:51:00;6.03;;;2.63;;
46377;SDS011;32083;47.360;9.650;2022-09-13T20:53:29;4.00;;;2.03;;
46377;SDS011;32083;47.360;9.650;2022-09-13T20:56:09;8.43;;;2.55;;
46377;SDS011;32083;47.360;9.650;2022-09-13T20:58:41;4.38;;;2.47;;
46377;SDS011;32083;47.360;9.650;2022-09-13T21:01:13;5.93;;;2.67;;
46377;SDS011;32083;47.360;9.650;2022-09-13T21:03:50;5.68;;;3.15;;
46377;SDS011;32083;47.360;9.650;2022-09-13T21:06:18;3.92;;;2.80;;
46377;SDS011;32083;47.360;9.650;2022-09-13T21:08:45;5.88;;;2.85;;
46377;SDS011;32083;47.360;9.650;2022-09-13T21:11:18;7.05;;;3.17;;
46377;SDS011;32083;47.360;9.650;2022-09-13T21:13:53;4.03;;;2.77;;
46377;SDS011;32083;47.360;9.650;2022-09-13T21:16:24;5.57;;;3.00;;
46377;SDS011;32083;47.360;9.650;2022-09-13T21:18:58;5.65;;;2.75;;
46377;SDS011;32083;47.360;9.650;2022-09-13T21:21:31;6.82;;;2.83;;
46377;SDS011;32083;47.360;9.650;2022-09-13T21:23:58;4.45;;;2.50;;
46377;SDS011;32083;47.360;9.650;2022-09-13T21:26:27;7.03;;;3.13;;
46377;SDS011;32083;47.360;9.650;2022-09-13T21:28:54;5.90;;;3.25;;
46377;SDS011;32083;47.360;9.650;2022-09-13T21:31:29;4.47;;;2.58;;
46377;SDS011;32083;47.360;9.650;2022-09-13T21:34:00;4.70;;;2.75;;
46377;SDS011;32083;47.360;9.650;2022-09-13T21:36:29;2.78;;;2.25;;
46377;SDS011;32083;47.360;9.650;2022-09-13T21:38:56;5.28;;;2.60;;
46377;SDS011;32083;47.360;9.650;2022-09-13T21:41:22;4.85;;;2.42;;
46377;SDS011;32083;47.360;9.650;2022-09-13T21:43:50;4.43;;;2.70;;
46377;SDS011;32083;47.360;9.650;2022-09-13T21:46:17;3.22;;;2.22;;
46377;SDS011;32083;47.360;9.650;2022-09-13T21:48:45;3.35;;;2.40;;
46377;SDS011;32083;47.360;9.650;2022-09-13T21:51:14;4.85;;;2.25;;
46377;SDS011;32083;47.360;9.650;2022-09-13T21:53:44;5.75;;;3.67;;
46377;SDS011;32083;47.360;9.650;2022-09-13T21:56:12;5.40;;;3.05;;
46377;SDS011;32083;47.360;9.650;2022-09-13T21:58:40;5.78;;;3.50;;
46377;SDS011;32083;47.360;9.650;2022-09-13T22:01:12;3.20;;;2.88;;
46377;SDS011;32083;47.360;9.650;2022-09-13T22:03:40;5.97;;;3.05;;
46377;SDS011;32083;47.360;9.650;2022-09-13T22:06:08;4.82;;;2.92;;
46377;SDS011;32083;47.360;9.650;2022-09-13T22:08:37;3.92;;;2.97;;
46377;SDS011;32083;47.360;9.650;2022-09-13T22:13:32;4.55;;;3.33;;
46377;SDS011;32083;47.360;9.650;2022-09-13T22:16:06;4.45;;;3.20;;
46377;SDS011;32083;47.360;9.650;2022-09-13T22:18:34;6.40;;;3.03;;